LVMSA SGAS-SARC
Flight info
| Callsign | LVMSA |
|---|---|
| Flight time | 1h 3m |
| Altitude | 6000 |
| Route | DCT ARPAS A428 DIGET DCT |
| Aircraft | BE36/L-S/C |
Departure
| Time | 2026-04-25 02:05 |
|---|---|
| Airport | Silvio Pettirossi International Airport (SGAS) |
Arrival
| Time | 2026-04-25 03:09 |
|---|---|
| Airport | Corrientes Airport (SARC) |
| Time | Latitude | Longitude | Altitude | Speed | Heading |
|---|---|---|---|---|---|
| 2026-04-25 01:49 | -25.25378 | -57.51760 | 312 ft | 0 kts | 201° |
| 2026-04-25 01:55 | -25.25382 | -57.51763 | 312 ft | 2 kts | 224° |
| 2026-04-25 01:55 | -25.25366 | -57.51803 | 308 ft | 10 kts | 358° |
| 2026-04-25 01:56 | -25.25282 | -57.51790 | 307 ft | 13 kts | 14° |
| 2026-04-25 01:56 | -25.25192 | -57.51752 | 306 ft | 14 kts | 23° |
| 2026-04-25 01:56 | -25.25085 | -57.51704 | 303 ft | 19 kts | 21° |
| 2026-04-25 01:56 | -25.24945 | -57.51639 | 302 ft | 23 kts | 22° |
| 2026-04-25 01:57 | -25.24657 | -57.51666 | 292 ft | 19 kts | 41° |
| 2026-04-25 01:57 | -25.24656 | -57.51659 | 292 ft | 8 kts | 255° |
| 2026-04-25 01:57 | -25.24645 | -57.51759 | 288 ft | 17 kts | 283° |
| 2026-04-25 01:58 | -25.24564 | -57.51836 | 282 ft | 20 kts | 12° |
| 2026-04-25 01:58 | -25.24413 | -57.51802 | 280 ft | 22 kts | 13° |
| 2026-04-25 01:58 | -25.24258 | -57.51763 | 277 ft | 23 kts | 12° |
| 2026-04-25 01:58 | -25.24098 | -57.51724 | 276 ft | 23 kts | 13° |
| 2026-04-25 01:59 | -25.23932 | -57.51685 | 273 ft | 24 kts | 13° |
| 2026-04-25 01:59 | -25.23765 | -57.51643 | 272 ft | 25 kts | 13° |
| 2026-04-25 01:59 | -25.23593 | -57.51602 | 269 ft | 25 kts | 13° |
| 2026-04-25 01:59 | -25.23415 | -57.51558 | 267 ft | 26 kts | 13° |
| 2026-04-25 02:00 | -25.23235 | -57.51515 | 265 ft | 26 kts | 13° |
| 2026-04-25 02:00 | -25.23056 | -57.51470 | 263 ft | 26 kts | 12° |
| 2026-04-25 02:00 | -25.22876 | -57.51426 | 262 ft | 26 kts | 12° |
| 2026-04-25 02:00 | -25.22694 | -57.51382 | 260 ft | 26 kts | 13° |
| 2026-04-25 02:01 | -25.22554 | -57.51397 | 257 ft | 18 kts | 289° |
| 2026-04-25 02:01 | -25.22539 | -57.51473 | 254 ft | 0 kts | 292° |
| 2026-04-25 02:04 | -25.22534 | -57.51494 | 254 ft | 9 kts | 278° |
| 2026-04-25 02:04 | -25.22580 | -57.51571 | 253 ft | 18 kts | 189° |
| 2026-04-25 02:04 | -25.22859 | -57.51637 | 255 ft | 65 kts | 193° |
| 2026-04-25 02:04 | -25.23391 | -57.51772 | 304 ft | 85 kts | 190° |
| 2026-04-25 02:05 | -25.23989 | -57.51908 | 504 ft | 88 kts | 189° |
| 2026-04-25 02:05 | -25.24596 | -57.52040 | 698 ft | 89 kts | 190° |
| 2026-04-25 02:05 | -25.25220 | -57.52185 | 840 ft | 93 kts | 188° |
| 2026-04-25 02:05 | -25.25893 | -57.52294 | 941 ft | 100 kts | 187° |
| 2026-04-25 02:06 | -25.26597 | -57.52408 | 1069 ft | 104 kts | 187° |
| 2026-04-25 02:06 | -25.27335 | -57.52526 | 1193 ft | 108 kts | 187° |
| 2026-04-25 02:06 | -25.28104 | -57.52646 | 1322 ft | 112 kts | 187° |
| 2026-04-25 02:06 | -25.28900 | -57.52767 | 1424 ft | 118 kts | 187° |
| 2026-04-25 02:07 | -25.29737 | -57.52889 | 1550 ft | 122 kts | 187° |
| 2026-04-25 02:07 | -25.30587 | -57.52900 | 1684 ft | 124 kts | 171° |
| 2026-04-25 02:07 | -25.31422 | -57.53112 | 1778 ft | 126 kts | 216° |
| 2026-04-25 02:07 | -25.31918 | -57.53902 | 1892 ft | 128 kts | 241° |
| 2026-04-25 02:08 | -25.32331 | -57.54794 | 2015 ft | 130 kts | 241° |
| 2026-04-25 02:08 | -25.32741 | -57.55677 | 2135 ft | 131 kts | 242° |
| 2026-04-25 02:08 | -25.33163 | -57.56584 | 2257 ft | 132 kts | 242° |
| 2026-04-25 02:08 | -25.33583 | -57.57485 | 2381 ft | 133 kts | 243° |
| 2026-04-25 02:09 | -25.34063 | -57.58366 | 2510 ft | 134 kts | 232° |
| 2026-04-25 02:09 | -25.34695 | -57.59112 | 2631 ft | 134 kts | 223° |
| 2026-04-25 02:09 | -25.35415 | -57.59779 | 2749 ft | 135 kts | 219° |
| 2026-04-25 02:09 | -25.36181 | -57.60409 | 2872 ft | 136 kts | 217° |
| 2026-04-25 02:10 | -25.36955 | -57.61006 | 2993 ft | 137 kts | 216° |
| 2026-04-25 02:10 | -25.37750 | -57.61602 | 3115 ft | 137 kts | 216° |
| 2026-04-25 02:10 | -25.38549 | -57.62194 | 3240 ft | 138 kts | 216° |
| 2026-04-25 02:10 | -25.39352 | -57.62781 | 3362 ft | 138 kts | 216° |
| 2026-04-25 02:11 | -25.40153 | -57.63369 | 3480 ft | 138 kts | 216° |
| 2026-04-25 02:11 | -25.40964 | -57.63961 | 3599 ft | 138 kts | 216° |
| 2026-04-25 02:11 | -25.41772 | -57.64549 | 3727 ft | 138 kts | 216° |
| 2026-04-25 02:11 | -25.42578 | -57.65137 | 3851 ft | 138 kts | 216° |
| 2026-04-25 02:12 | -25.43372 | -57.65718 | 3981 ft | 138 kts | 216° |
| 2026-04-25 02:12 | -25.44181 | -57.66308 | 4109 ft | 138 kts | 216° |
| 2026-04-25 02:12 | -25.44985 | -57.66896 | 4231 ft | 137 kts | 216° |
| 2026-04-25 02:12 | -25.45777 | -57.67472 | 4352 ft | 137 kts | 217° |
| 2026-04-25 02:13 | -25.46575 | -57.68057 | 4475 ft | 137 kts | 216° |
| 2026-04-25 02:13 | -25.47371 | -57.68636 | 4596 ft | 136 kts | 217° |
| 2026-04-25 02:13 | -25.48156 | -57.69208 | 4712 ft | 135 kts | 217° |
| 2026-04-25 02:13 | -25.48951 | -57.69788 | 4834 ft | 134 kts | 217° |
| 2026-04-25 02:14 | -25.49723 | -57.70353 | 4955 ft | 134 kts | 217° |
| 2026-04-25 02:14 | -25.50505 | -57.70926 | 5078 ft | 133 kts | 217° |
| 2026-04-25 02:14 | -25.51275 | -57.71488 | 5200 ft | 133 kts | 217° |
| 2026-04-25 02:14 | -25.52053 | -57.72056 | 5325 ft | 132 kts | 218° |
| 2026-04-25 02:15 | -25.52822 | -57.72618 | 5445 ft | 132 kts | 218° |
| 2026-04-25 02:15 | -25.53585 | -57.73177 | 5566 ft | 131 kts | 217° |
| 2026-04-25 02:15 | -25.54347 | -57.73733 | 5686 ft | 130 kts | 218° |
| 2026-04-25 02:15 | -25.55100 | -57.74284 | 5807 ft | 130 kts | 218° |
| 2026-04-25 02:16 | -25.55863 | -57.74840 | 5927 ft | 129 kts | 218° |
| 2026-04-25 02:16 | -25.56608 | -57.75386 | 6049 ft | 129 kts | 218° |
| 2026-04-25 02:16 | -25.57356 | -57.75933 | 6169 ft | 128 kts | 219° |
| 2026-04-25 02:16 | -25.58097 | -57.76474 | 6288 ft | 126 kts | 218° |
| 2026-04-25 02:17 | -25.58820 | -57.77003 | 6403 ft | 122 kts | 219° |
| 2026-04-25 02:17 | -25.59517 | -57.77514 | 6515 ft | 117 kts | 219° |
| 2026-04-25 02:17 | -25.60180 | -57.78000 | 6627 ft | 112 kts | 219° |
| 2026-04-25 02:17 | -25.60875 | -57.78511 | 6536 ft | 128 kts | 219° |
| 2026-04-25 02:18 | -25.61670 | -57.79096 | 6401 ft | 145 kts | 218° |
| 2026-04-25 02:18 | -25.62543 | -57.79738 | 6256 ft | 157 kts | 218° |
| 2026-04-25 02:18 | -25.63477 | -57.80421 | 6104 ft | 166 kts | 218° |
| 2026-04-25 02:18 | -25.64464 | -57.81142 | 5945 ft | 173 kts | 218° |
| 2026-04-25 02:19 | -25.65466 | -57.81874 | 5954 ft | 169 kts | 218° |
| 2026-04-25 02:19 | -25.66432 | -57.82582 | 5961 ft | 166 kts | 218° |
| 2026-04-25 02:19 | -25.67403 | -57.83290 | 5962 ft | 164 kts | 218° |
| 2026-04-25 02:19 | -25.68347 | -57.83983 | 5961 ft | 163 kts | 218° |
| 2026-04-25 02:20 | -25.69292 | -57.84676 | 5960 ft | 161 kts | 218° |
| 2026-04-25 02:20 | -25.70233 | -57.85364 | 5962 ft | 160 kts | 218° |
| 2026-04-25 02:20 | -25.71162 | -57.86046 | 5963 ft | 159 kts | 218° |
| 2026-04-25 02:20 | -25.72085 | -57.86724 | 5965 ft | 159 kts | 218° |
| 2026-04-25 02:21 | -25.73009 | -57.87405 | 5968 ft | 158 kts | 218° |
| 2026-04-25 02:21 | -25.73606 | -57.88344 | 5960 ft | 147 kts | 260° |
| 2026-04-25 02:21 | -25.74140 | -57.89314 | 5982 ft | 155 kts | 221° |
| 2026-04-25 02:21 | -25.75051 | -57.89981 | 5982 ft | 157 kts | 217° |
| 2026-04-25 02:22 | -25.75977 | -57.90636 | 5983 ft | 157 kts | 217° |
| 2026-04-25 02:22 | -25.76902 | -57.91293 | 5983 ft | 157 kts | 217° |
| 2026-04-25 02:22 | -25.77826 | -57.91946 | 5983 ft | 157 kts | 217° |
| 2026-04-25 02:22 | -25.78750 | -57.92594 | 5984 ft | 157 kts | 218° |
| 2026-04-25 02:23 | -25.79673 | -57.93248 | 5985 ft | 157 kts | 217° |
| 2026-04-25 02:23 | -25.80603 | -57.93902 | 5984 ft | 157 kts | 218° |
| 2026-04-25 02:23 | -25.81525 | -57.94552 | 5983 ft | 157 kts | 217° |
| 2026-04-25 02:23 | -25.82452 | -57.95206 | 5981 ft | 157 kts | 217° |
| 2026-04-25 02:24 | -25.83376 | -57.95857 | 5981 ft | 157 kts | 217° |
| 2026-04-25 02:24 | -25.84301 | -57.96508 | 5981 ft | 158 kts | 217° |
| 2026-04-25 02:24 | -25.85238 | -57.97168 | 5983 ft | 158 kts | 217° |
| 2026-04-25 02:24 | -25.86165 | -57.97819 | 5982 ft | 158 kts | 217° |
| 2026-04-25 02:25 | -25.87093 | -57.98475 | 5984 ft | 158 kts | 217° |
| 2026-04-25 02:25 | -25.88035 | -57.99139 | 5985 ft | 158 kts | 217° |
| 2026-04-25 02:25 | -25.88972 | -57.99799 | 5896 ft | 164 kts | 217° |
| 2026-04-25 02:25 | -25.89951 | -58.00488 | 5878 ft | 163 kts | 217° |
| 2026-04-25 02:26 | -25.90913 | -58.01165 | 5785 ft | 168 kts | 217° |
| 2026-04-25 02:26 | -25.91907 | -58.01866 | 5761 ft | 167 kts | 217° |
| 2026-04-25 02:26 | -25.92883 | -58.02553 | 5784 ft | 163 kts | 217° |
| 2026-04-25 02:26 | -25.93828 | -58.03220 | 5814 ft | 160 kts | 217° |
| 2026-04-25 02:27 | -25.94751 | -58.03868 | 5862 ft | 156 kts | 217° |
| 2026-04-25 02:27 | -25.95667 | -58.04516 | 5867 ft | 156 kts | 217° |
| 2026-04-25 02:27 | -25.96586 | -58.05164 | 5867 ft | 156 kts | 218° |
| 2026-04-25 02:27 | -25.97506 | -58.05815 | 5865 ft | 157 kts | 217° |
| 2026-04-25 02:28 | -25.98428 | -58.06468 | 5865 ft | 157 kts | 217° |
| 2026-04-25 02:28 | -25.99354 | -58.07122 | 5866 ft | 157 kts | 217° |
| 2026-04-25 02:28 | -26.00282 | -58.07777 | 5866 ft | 157 kts | 217° |
| 2026-04-25 02:28 | -26.01193 | -58.08421 | 5868 ft | 157 kts | 217° |
| 2026-04-25 02:29 | -26.02117 | -58.09074 | 5866 ft | 157 kts | 217° |
| 2026-04-25 02:29 | -26.03043 | -58.09728 | 5866 ft | 157 kts | 217° |
| 2026-04-25 02:29 | -26.03975 | -58.10385 | 5867 ft | 157 kts | 217° |
| 2026-04-25 02:29 | -26.04901 | -58.11041 | 5865 ft | 157 kts | 217° |
| 2026-04-25 02:30 | -26.05826 | -58.11692 | 5804 ft | 161 kts | 217° |
| 2026-04-25 02:30 | -26.06731 | -58.12330 | 5991 ft | 146 kts | 218° |
| 2026-04-25 02:30 | -26.07550 | -58.12904 | 6184 ft | 133 kts | 219° |
| 2026-04-25 02:30 | -26.08299 | -58.13429 | 6382 ft | 120 kts | 219° |
| 2026-04-25 02:31 | -26.08966 | -58.13898 | 6581 ft | 108 kts | 220° |
| 2026-04-25 02:31 | -26.09576 | -58.14330 | 6773 ft | 100 kts | 221° |
| 2026-04-25 02:31 | -26.10146 | -58.14731 | 6964 ft | 92 kts | 222° |
| 2026-04-25 02:31 | -26.10663 | -58.15097 | 7127 ft | 85 kts | 221° |
| 2026-04-25 02:32 | -26.11177 | -58.15462 | 7241 ft | 88 kts | 223° |
| 2026-04-25 02:32 | -26.11713 | -58.15845 | 7319 ft | 94 kts | 221° |
| 2026-04-25 02:32 | -26.12280 | -58.16248 | 7393 ft | 100 kts | 221° |
| 2026-04-25 02:32 | -26.12883 | -58.16680 | 7481 ft | 105 kts | 220° |
| 2026-04-25 02:33 | -26.13512 | -58.17127 | 7570 ft | 109 kts | 220° |
| 2026-04-25 02:33 | -26.14165 | -58.17590 | 7642 ft | 113 kts | 220° |
| 2026-04-25 02:33 | -26.14846 | -58.18072 | 7719 ft | 117 kts | 220° |
| 2026-04-25 02:33 | -26.15542 | -58.18567 | 7797 ft | 120 kts | 220° |
| 2026-04-25 02:34 | -26.16261 | -58.19078 | 7873 ft | 123 kts | 220° |
| 2026-04-25 02:34 | -26.16989 | -58.19594 | 7949 ft | 127 kts | 219° |
| 2026-04-25 02:34 | -26.17750 | -58.20134 | 8026 ft | 130 kts | 219° |
| 2026-04-25 02:34 | -26.18525 | -58.20684 | 8102 ft | 132 kts | 219° |
| 2026-04-25 02:35 | -26.19310 | -58.21241 | 8174 ft | 135 kts | 219° |
| 2026-04-25 02:35 | -26.20110 | -58.21807 | 8247 ft | 137 kts | 219° |
| 2026-04-25 02:35 | -26.20911 | -58.22375 | 8318 ft | 138 kts | 218° |
| 2026-04-25 02:35 | -26.21753 | -58.22934 | 8390 ft | 139 kts | 218° |
| 2026-04-25 02:36 | -26.22586 | -58.23490 | 8461 ft | 140 kts | 218° |
| 2026-04-25 02:36 | -26.23425 | -58.24052 | 8529 ft | 141 kts | 217° |
| 2026-04-25 02:36 | -26.24267 | -58.24611 | 8598 ft | 141 kts | 217° |
| 2026-04-25 02:36 | -26.25113 | -58.25175 | 8667 ft | 141 kts | 217° |
| 2026-04-25 02:37 | -26.25962 | -58.25737 | 8739 ft | 141 kts | 217° |
| 2026-04-25 02:37 | -26.26802 | -58.26299 | 8820 ft | 141 kts | 217° |
| 2026-04-25 02:37 | -26.27648 | -58.26859 | 8896 ft | 141 kts | 217° |
| 2026-04-25 02:37 | -26.28485 | -58.27417 | 9000 ft | 138 kts | 217° |
| 2026-04-25 02:38 | -26.29295 | -58.27954 | 9130 ft | 133 kts | 218° |
| 2026-04-25 02:38 | -26.30090 | -58.28480 | 9264 ft | 128 kts | 218° |
| 2026-04-25 02:38 | -26.30843 | -58.28981 | 9395 ft | 124 kts | 218° |
| 2026-04-25 02:38 | -26.31571 | -58.29464 | 9529 ft | 119 kts | 219° |
| 2026-04-25 02:39 | -26.32263 | -58.29926 | 9650 ft | 113 kts | 219° |
| 2026-04-25 02:39 | -26.32929 | -58.30367 | 9779 ft | 108 kts | 219° |
| 2026-04-25 02:39 | -26.33584 | -58.30805 | 9812 ft | 114 kts | 219° |
| 2026-04-25 02:39 | -26.34280 | -58.31272 | 9808 ft | 120 kts | 219° |
| 2026-04-25 02:40 | -26.35009 | -58.31762 | 9807 ft | 124 kts | 218° |
| 2026-04-25 02:40 | -26.35774 | -58.32272 | 9810 ft | 129 kts | 218° |
| 2026-04-25 02:40 | -26.36547 | -58.32790 | 9811 ft | 133 kts | 218° |
| 2026-04-25 02:40 | -26.37365 | -58.33335 | 9811 ft | 137 kts | 218° |
| 2026-04-25 02:41 | -26.38191 | -58.33887 | 9811 ft | 141 kts | 217° |
| 2026-04-25 02:41 | -26.39042 | -58.34451 | 9806 ft | 143 kts | 218° |
| 2026-04-25 02:41 | -26.39908 | -58.35030 | 9805 ft | 145 kts | 218° |
| 2026-04-25 02:41 | -26.40778 | -58.35609 | 9805 ft | 147 kts | 218° |
| 2026-04-25 02:42 | -26.41667 | -58.36205 | 9808 ft | 149 kts | 218° |
| 2026-04-25 02:42 | -26.42561 | -58.36802 | 9807 ft | 150 kts | 217° |
| 2026-04-25 02:42 | -26.43460 | -58.37402 | 9804 ft | 151 kts | 217° |
| 2026-04-25 02:42 | -26.44364 | -58.38005 | 9802 ft | 152 kts | 217° |
| 2026-04-25 02:43 | -26.45274 | -58.38614 | 9801 ft | 152 kts | 217° |
| 2026-04-25 02:43 | -26.46190 | -58.39223 | 9802 ft | 152 kts | 217° |
| 2026-04-25 02:43 | -26.47106 | -58.39836 | 9801 ft | 153 kts | 217° |
| 2026-04-25 02:43 | -26.48016 | -58.40443 | 9799 ft | 153 kts | 217° |
| 2026-04-25 02:44 | -26.48936 | -58.41056 | 9796 ft | 153 kts | 217° |
| 2026-04-25 02:44 | -26.49843 | -58.41664 | 9795 ft | 153 kts | 217° |
| 2026-04-25 02:44 | -26.50766 | -58.42281 | 9793 ft | 153 kts | 217° |
| 2026-04-25 02:44 | -26.51673 | -58.42886 | 9793 ft | 153 kts | 218° |
| 2026-04-25 02:45 | -26.52592 | -58.43499 | 9793 ft | 153 kts | 218° |
| 2026-04-25 02:45 | -26.53511 | -58.44115 | 9794 ft | 153 kts | 218° |
| 2026-04-25 02:45 | -26.54428 | -58.44729 | 9795 ft | 153 kts | 218° |
| 2026-04-25 02:45 | -26.55337 | -58.45337 | 9795 ft | 153 kts | 217° |
| 2026-04-25 02:46 | -26.56251 | -58.45949 | 9795 ft | 153 kts | 217° |
| 2026-04-25 02:46 | -26.57168 | -58.46565 | 9794 ft | 153 kts | 217° |
| 2026-04-25 02:46 | -26.58078 | -58.47175 | 9794 ft | 152 kts | 217° |
| 2026-04-25 02:46 | -26.58991 | -58.47784 | 9794 ft | 152 kts | 217° |
| 2026-04-25 02:47 | -26.59898 | -58.48391 | 9793 ft | 153 kts | 217° |
| 2026-04-25 02:47 | -26.60808 | -58.49002 | 9793 ft | 153 kts | 217° |
| 2026-04-25 02:47 | -26.61728 | -58.49617 | 9792 ft | 153 kts | 217° |
| 2026-04-25 02:47 | -26.62639 | -58.50227 | 9793 ft | 153 kts | 217° |
| 2026-04-25 02:48 | -26.63548 | -58.50837 | 9795 ft | 153 kts | 217° |
| 2026-04-25 02:48 | -26.64472 | -58.51454 | 9795 ft | 153 kts | 218° |
| 2026-04-25 02:48 | -26.65384 | -58.52066 | 9794 ft | 153 kts | 218° |
| 2026-04-25 02:48 | -26.66302 | -58.52683 | 9794 ft | 153 kts | 217° |
| 2026-04-25 02:49 | -26.67209 | -58.53291 | 9794 ft | 153 kts | 218° |
| 2026-04-25 02:49 | -26.68126 | -58.53907 | 9792 ft | 153 kts | 217° |
| 2026-04-25 02:49 | -26.69041 | -58.54523 | 9790 ft | 153 kts | 217° |
| 2026-04-25 02:49 | -26.69958 | -58.55138 | 9787 ft | 153 kts | 217° |
| 2026-04-25 02:50 | -26.70870 | -58.55747 | 9787 ft | 152 kts | 217° |
| 2026-04-25 02:50 | -26.71776 | -58.56358 | 9787 ft | 152 kts | 217° |
| 2026-04-25 02:50 | -26.72689 | -58.56970 | 9728 ft | 156 kts | 217° |
| 2026-04-25 02:50 | -26.73641 | -58.57612 | 9584 ft | 164 kts | 217° |
| 2026-04-25 02:51 | -26.74645 | -58.58288 | 9420 ft | 170 kts | 216° |
| 2026-04-25 02:51 | -26.75665 | -58.58974 | 9254 ft | 175 kts | 216° |
| 2026-04-25 02:51 | -26.76722 | -58.59684 | 9086 ft | 177 kts | 216° |
| 2026-04-25 02:51 | -26.77789 | -58.60399 | 8919 ft | 179 kts | 216° |
| 2026-04-25 02:52 | -26.78869 | -58.61125 | 8749 ft | 180 kts | 217° |
| 2026-04-25 02:52 | -26.79947 | -58.61849 | 8574 ft | 181 kts | 217° |
| 2026-04-25 02:52 | -26.81033 | -58.62580 | 8344 ft | 183 kts | 217° |
| 2026-04-25 02:52 | -26.82120 | -58.63311 | 8101 ft | 183 kts | 217° |
| 2026-04-25 02:53 | -26.83209 | -58.64045 | 7855 ft | 181 kts | 217° |
| 2026-04-25 02:53 | -26.84276 | -58.64762 | 7605 ft | 177 kts | 217° |
| 2026-04-25 02:53 | -26.85322 | -58.65464 | 7359 ft | 173 kts | 218° |
| 2026-04-25 02:53 | -26.86335 | -58.66146 | 7118 ft | 168 kts | 218° |
| 2026-04-25 02:54 | -26.87331 | -58.66815 | 6874 ft | 162 kts | 218° |
| 2026-04-25 02:54 | -26.88338 | -58.67499 | 6652 ft | 177 kts | 218° |
| 2026-04-25 02:54 | -26.89427 | -58.68235 | 6431 ft | 188 kts | 217° |
| 2026-04-25 02:54 | -26.90582 | -58.69015 | 6202 ft | 196 kts | 217° |
| 2026-04-25 02:55 | -26.91765 | -58.69814 | 5968 ft | 201 kts | 217° |
| 2026-04-25 02:55 | -26.92959 | -58.70618 | 5731 ft | 200 kts | 217° |
| 2026-04-25 02:55 | -26.94156 | -58.71427 | 5489 ft | 199 kts | 216° |
| 2026-04-25 02:55 | -26.95339 | -58.72225 | 5249 ft | 199 kts | 216° |
| 2026-04-25 02:56 | -26.96530 | -58.73028 | 5007 ft | 198 kts | 215° |
| 2026-04-25 02:56 | -26.97708 | -58.73822 | 4793 ft | 196 kts | 215° |
| 2026-04-25 02:56 | -26.98829 | -58.74578 | 4833 ft | 182 kts | 215° |
| 2026-04-25 02:56 | -26.99881 | -58.75285 | 4839 ft | 171 kts | 216° |
| 2026-04-25 02:57 | -27.00889 | -58.75967 | 4839 ft | 163 kts | 217° |
| 2026-04-25 02:57 | -27.01938 | -58.76412 | 4840 ft | 164 kts | 185° |
| 2026-04-25 02:57 | -27.03073 | -58.76198 | 4708 ft | 171 kts | 169° |
| 2026-04-25 02:57 | -27.04257 | -58.75864 | 4503 ft | 177 kts | 168° |
| 2026-04-25 02:58 | -27.05462 | -58.75503 | 4293 ft | 182 kts | 167° |
| 2026-04-25 02:58 | -27.06698 | -58.75129 | 4081 ft | 185 kts | 167° |
| 2026-04-25 02:58 | -27.07948 | -58.74750 | 3869 ft | 188 kts | 167° |
| 2026-04-25 02:58 | -27.09218 | -58.74363 | 3657 ft | 189 kts | 166° |
| 2026-04-25 02:59 | -27.10505 | -58.73978 | 3438 ft | 190 kts | 166° |
| 2026-04-25 02:59 | -27.11786 | -58.73605 | 3216 ft | 189 kts | 166° |
| 2026-04-25 02:59 | -27.13047 | -58.73242 | 2998 ft | 187 kts | 166° |
| 2026-04-25 02:59 | -27.14287 | -58.72882 | 2919 ft | 177 kts | 167° |
| 2026-04-25 03:00 | -27.15459 | -58.72595 | 2854 ft | 169 kts | 169° |
| 2026-04-25 03:00 | -27.16629 | -58.72439 | 2722 ft | 165 kts | 179° |
| 2026-04-25 03:00 | -27.17757 | -58.72453 | 2615 ft | 161 kts | 181° |
| 2026-04-25 03:00 | -27.18877 | -58.72469 | 2509 ft | 157 kts | 182° |
| 2026-04-25 03:01 | -27.19963 | -58.72510 | 2409 ft | 154 kts | 186° |
| 2026-04-25 03:01 | -27.21022 | -58.72666 | 2361 ft | 148 kts | 189° |
| 2026-04-25 03:01 | -27.22033 | -58.72847 | 2301 ft | 146 kts | 189° |
| 2026-04-25 03:01 | -27.23050 | -58.73020 | 2152 ft | 149 kts | 187° |
| 2026-04-25 03:02 | -27.24082 | -58.73128 | 2034 ft | 150 kts | 185° |
| 2026-04-25 03:02 | -27.25121 | -58.73229 | 1961 ft | 146 kts | 188° |
| 2026-04-25 03:02 | -27.26114 | -58.73359 | 1947 ft | 139 kts | 187° |
| 2026-04-25 03:02 | -27.27065 | -58.73473 | 1930 ft | 134 kts | 185° |
| 2026-04-25 03:03 | -27.27978 | -58.73554 | 1902 ft | 131 kts | 186° |
| 2026-04-25 03:03 | -27.28889 | -58.73676 | 1892 ft | 129 kts | 187° |
| 2026-04-25 03:03 | -27.29768 | -58.73828 | 1908 ft | 125 kts | 190° |
| 2026-04-25 03:03 | -27.30600 | -58.74058 | 1912 ft | 122 kts | 191° |
| 2026-04-25 03:04 | -27.31431 | -58.74213 | 1929 ft | 119 kts | 187° |
| 2026-04-25 03:04 | -27.32266 | -58.74322 | 1913 ft | 121 kts | 186° |
| 2026-04-25 03:04 | -27.33098 | -58.74451 | 1934 ft | 118 kts | 189° |
| 2026-04-25 03:05 | -27.34692 | -58.74709 | 1993 ft | 111 kts | 185° |
| 2026-04-25 03:05 | -27.35431 | -58.74785 | 1871 ft | 105 kts | 182° |
| 2026-04-25 03:05 | -27.36153 | -58.74838 | 1710 ft | 100 kts | 191° |
| 2026-04-25 03:05 | -27.36845 | -58.74974 | 1548 ft | 99 kts | 187° |
| 2026-04-25 03:06 | -27.37523 | -58.75098 | 1421 ft | 97 kts | 187° |
| 2026-04-25 03:06 | -27.38190 | -58.75187 | 1283 ft | 96 kts | 186° |
| 2026-04-25 03:06 | -27.38852 | -58.75319 | 1157 ft | 95 kts | 187° |
| 2026-04-25 03:06 | -27.39499 | -58.75435 | 1047 ft | 93 kts | 186° |
| 2026-04-25 03:07 | -27.40143 | -58.75525 | 936 ft | 92 kts | 185° |
| 2026-04-25 03:07 | -27.40774 | -58.75609 | 815 ft | 92 kts | 185° |
| 2026-04-25 03:07 | -27.41403 | -58.75700 | 692 ft | 87 kts | 185° |
| 2026-04-25 03:07 | -27.41978 | -58.75780 | 556 ft | 78 kts | 186° |
| 2026-04-25 03:08 | -27.42508 | -58.75864 | 457 ft | 78 kts | 184° |
| 2026-04-25 03:08 | -27.43065 | -58.75953 | 357 ft | 81 kts | 184° |
| 2026-04-25 03:08 | -27.43622 | -58.76038 | 243 ft | 79 kts | 186° |
| 2026-04-25 03:08 | -27.44083 | -58.76105 | 203 ft | 55 kts | 187° |
| 2026-04-25 03:09 | -27.44428 | -58.76156 | 203 ft | 46 kts | 188° |
| 2026-04-25 03:09 | -27.44727 | -58.76207 | 203 ft | 31 kts | 184° |
| 2026-04-25 03:09 | -27.44801 | -58.76049 | 203 ft | 26 kts | 96° |
| 2026-04-25 03:09 | -27.44812 | -58.75887 | 203 ft | 14 kts | 83° |
| 2026-04-25 03:10 | -27.44818 | -58.75834 | 203 ft | 0 kts | 109° |